Astroworld, Texas
Current Conditions -  °F | °C
As of 3:35 PM on Thursday 27 Nov 2014 (Local Time) from KMCJ Reporting Station
Clear Clear  
Wind Chill: 20°   Ceiling: Unl
Heat Index: 20°   Visibility: 10mi
Dew Point: -1°   Wind: 0mph
Humidity: 24%   Direction: NA
Pressure: 30.38"   Gusts: NA
Location:  29.6867°N, 95.4345°W
Report Text: KMCJ 272135Z AUTO 00000KT 10SM CLR 20/M01 A3038 RMK AO1
Loading
Personal Weather Stations






























Interactive Weather Map New forecast layout! Learn more

10-Day Weather Forecast

Advertisements
Track Severe Weather on mobile